Time;durP1;ratioP1;P1;durP2;ratioP2;P2;SDS_P1;SDS_P2;PMS_P1;PMS_P2;Temp;Humidity;BMP_temperature;BMP_pressure;BME280_temperature;BME280_humidity;BME280_pressure;Samples;Min_cycle;Max_cycle;Signal;HPM_P1;HPM_P2
2021/12/29 00:01:22;;;;;;;1.30;0.70;;;17.60;57.40;;;;;;5053251;28;20233;-58
2021/12/29 00:03:48;;;;;;;0.88;0.75;;;17.60;57.40;;;;;;5054054;28;20456;-58
2021/12/29 00:06:13;;;;;;;1.02;0.68;;;17.60;57.40;;;;;;5053815;28;20236;-58
2021/12/29 00:08:39;;;;;;;0.65;0.65;;;17.60;57.40;;;;;;5052651;28;20877;-59
2021/12/29 00:11:05;;;;;;;1.38;0.90;;;17.50;57.40;;;;;;5054075;28;20263;-60
2021/12/29 00:13:30;;;;;;;1.52;0.95;;;17.50;57.40;;;;;;5053447;28;20168;-60
2021/12/29 00:16:00;;;;;;;0.88;0.85;;;17.50;57.40;;;;;;5053021;28;20270;-59
2021/12/29 00:18:26;;;;;;;0.55;0.50;;;17.50;57.40;;;;;;5053429;28;20652;-59
2021/12/29 00:20:52;;;;;;;0.88;0.60;;;17.50;57.40;;;;;;5053474;28;20218;-59
2021/12/29 00:23:17;;;;;;;0.68;0.68;;;17.50;57.40;;;;;;5053196;28;20184;-59
2021/12/29 00:25:43;;;;;;;1.58;0.70;;;17.50;57.80;;;;;;5053467;28;20171;-59
2021/12/29 00:28:08;;;;;;;2.42;0.60;;;17.50;57.50;;;;;;5053514;28;20208;-59
2021/12/29 00:30:34;;;;;;;1.02;0.60;;;17.50;57.40;;;;;;5052632;28;20186;-59
2021/12/29 00:33:00;;;;;;;1.17;0.90;;;17.50;57.50;;;;;;5053379;28;20500;-59
2021/12/29 00:35:25;;;;;;;1.45;0.63;;;17.50;57.50;;;;;;5053044;28;20598;-59
2021/12/29 00:37:51;;;;;;;0.70;0.60;;;17.40;57.40;;;;;;5052889;28;20248;-59
2021/12/29 00:40:16;;;;;;;1.27;0.75;;;17.40;57.50;;;;;;5053288;28;20191;-60
2021/12/29 00:42:42;;;;;;;0.60;0.60;;;17.40;57.40;;;;;;5053220;28;20253;-60
2021/12/29 00:45:07;;;;;;;0.52;0.50;;;17.40;57.40;;;;;;5052674;28;20254;-59
2021/12/29 00:47:34;;;;;;;1.15;0.70;;;17.40;57.40;;;;;;5052907;28;20685;-60
2021/12/29 00:50:01;;;;;;;0.63;0.55;;;17.40;57.40;;;;;;5052542;28;20233;-60
2021/12/29 00:52:26;;;;;;;0.85;0.73;;;17.40;57.40;;;;;;5053088;28;20249;-60
2021/12/29 00:54:52;;;;;;;0.63;0.63;;;17.40;57.50;;;;;;5053282;28;20254;-60
2021/12/29 00:57:17;;;;;;;1.17;0.57;;;17.40;57.50;;;;;;5052579;28;20182;-60
2021/12/29 00:59:43;;;;;;;0.60;0.60;;;17.40;57.50;;;;;;5052770;28;20175;-59
2021/12/29 01:02:08;;;;;;;0.75;0.50;;;17.40;57.50;;;;;;5052724;28;20206;-59
2021/12/29 01:04:34;;;;;;;0.60;0.60;;;17.30;57.40;;;;;;5051761;28;20622;-59
2021/12/29 01:06:59;;;;;;;1.30;1.17;;;17.30;57.50;;;;;;5053007;28;20171;-59
2021/12/29 01:09:25;;;;;;;1.15;0.70;;;17.30;57.50;;;;;;5052781;28;20217;-58
2021/12/29 01:11:54;;;;;;;0.60;0.60;;;17.30;57.40;;;;;;5051522;28;20185;-60
2021/12/29 01:14:22;;;;;;;1.45;0.68;;;17.30;57.40;;;;;;5052585;28;20177;-59
2021/12/29 01:16:48;;;;;;;0.50;0.50;;;17.30;57.50;;;;;;5052841;28;20258;-60
2021/12/29 01:19:18;;;;;;;0.45;0.45;;;17.30;57.50;;;;;;5052020;28;20180;-59
2021/12/29 01:21:44;;;;;;;0.60;0.50;;;17.30;57.50;;;;;;5052343;28;20613;-59
2021/12/29 01:24:10;;;;;;;0.70;0.70;;;17.30;57.50;;;;;;5052699;28;20175;-60
2021/12/29 01:26:36;;;;;;;0.55;0.40;;;17.30;57.50;;;;;;5051611;28;20253;-60
2021/12/29 01:29:03;;;;;;;1.10;0.75;;;17.20;57.40;;;;;;5052314;28;20622;-59
2021/12/29 01:31:28;;;;;;;0.63;0.57;;;17.30;57.50;;;;;;5051975;28;20179;-59
2021/12/29 01:33:54;;;;;;;0.80;0.50;;;17.20;57.50;;;;;;5051995;28;20171;-59
2021/12/29 01:36:19;;;;;;;0.95;0.60;;;17.20;57.40;;;;;;5052208;28;20191;-60
2021/12/29 01:38:45;;;;;;;0.70;0.70;;;17.20;57.40;;;;;;5052069;28;20187;-60
2021/12/29 01:41:10;;;;;;;2.00;0.77;;;17.20;57.40;;;;;;5051542;28;20207;-59
2021/12/29 01:43:36;;;;;;;1.05;0.60;;;17.20;57.40;;;;;;5051900;28;20171;-59
2021/12/29 01:46:01;;;;;;;1.40;0.60;;;17.20;57.40;;;;;;5052026;28;20183;-59
2021/12/29 01:48:27;;;;;;;1.02;0.70;;;17.20;57.40;;;;;;5051093;28;20224;-59
2021/12/29 01:50:52;;;;;;;0.80;0.80;;;17.20;57.50;;;;;;5052092;28;20198;-60
2021/12/29 01:53:27;;;;;;;0.93;0.50;;;17.20;57.50;;;;;;5051163;28;20242;-60
2021/12/29 01:55:53;;;;;;;0.82;0.75;;;17.20;57.50;;;;;;5052143;28;20315;-60
2021/12/29 01:58:19;;;;;;;1.25;0.70;;;17.20;57.50;;;;;;5051630;28;20671;-60
2021/12/29 02:00:44;;;;;;;1.05;0.85;;;17.10;57.40;;;;;;5050784;28;20245;-60
2021/12/29 02:03:10;;;;;;;1.45;0.70;;;17.20;57.50;;;;;;5051960;28;20197;-60
2021/12/29 02:05:36;;;;;;;0.90;0.60;;;17.10;57.40;;;;;;5051674;28;20297;-59
2021/12/29 02:08:02;;;;;;;0.70;0.60;;;17.10;57.40;;;;;;5051308;28;20186;-60
2021/12/29 02:10:32;;;;;;;1.23;0.70;;;17.10;57.40;;;;;;5051479;28;20175;-59
2021/12/29 02:12:58;;;;;;;0.80;0.73;;;17.10;57.40;;;;;;5051612;28;20618;-59
2021/12/29 02:15:24;;;;;;;0.95;0.80;;;17.10;57.50;;;;;;5049377;28;20187;-60
2021/12/29 02:17:50;;;;;;;1.33;0.57;;;17.10;57.50;;;;;;5051806;28;20584;-61
2021/12/29 02:20:18;;;;;;;0.70;0.70;;;17.10;57.50;;;;;;5051539;28;20289;-60
2021/12/29 02:22:48;;;;;;;0.95;0.88;;;17.10;57.50;;;;;;5050976;28;20182;-60
2021/12/29 02:27:52;;;;;;;0.82;0.82;;;17.10;57.50;;;;;;5051286;28;20193;-63
2021/12/29 02:30:21;;;;;;;0.98;0.65;;;17.10;58.20;;;;;;5050699;28;20181;-60
2021/12/29 02:32:47;;;;;;;1.00;0.75;;;17.10;57.50;;;;;;5051434;28;20186;-61
2021/12/29 02:35:13;;;;;;;2.00;1.00;;;17.10;58.10;;;;;;5050234;28;20171;-60
2021/12/29 02:37:39;;;;;;;1.15;0.85;;;17.10;57.50;;;;;;5050445;28;20175;-60
2021/12/29 02:40:06;;;;;;;0.63;0.60;;;17.10;57.50;;;;;;5051283;28;20228;-60
2021/12/29 02:42:38;;;;;;;1.15;0.75;;;17.00;57.50;;;;;;5050263;28;20641;-60
2021/12/29 02:45:06;;;;;;;0.68;0.68;;;17.00;57.50;;;;;;5051395;28;20557;-59
2021/12/29 02:47:31;;;;;;;1.10;1.00;;;17.00;57.50;;;;;;5051270;28;20175;-60
2021/12/29 02:49:57;;;;;;;1.65;1.10;;;17.00;57.50;;;;;;5050542;28;20214;-60
2021/12/29 02:52:24;;;;;;;0.80;0.70;;;17.00;57.50;;;;;;5050949;28;20179;-60
2021/12/29 02:54:50;;;;;;;1.02;0.80;;;17.00;57.50;;;;;;5051319;28;20610;-60
2021/12/29 02:57:16;;;;;;;0.70;0.70;;;17.00;57.50;;;;;;5050809;28;20174;-60
2021/12/29 02:59:41;;;;;;;0.82;0.80;;;17.00;57.50;;;;;;5051073;28;20630;-60
2021/12/29 03:02:07;;;;;;;0.95;0.75;;;17.00;57.50;;;;;;5051328;28;20233;-59
2021/12/29 03:04:32;;;;;;;0.63;0.63;;;17.00;57.50;;;;;;5050076;28;20171;-60
2021/12/29 03:06:58;;;;;;;0.85;0.75;;;17.00;57.50;;;;;;5050963;28;20179;-60
2021/12/29 03:09:24;;;;;;;1.05;1.00;;;17.00;57.50;;;;;;5050776;28;20293;-59
2021/12/29 03:11:49;;;;;;;0.85;0.70;;;17.00;57.50;;;;;;5050262;28;20630;-60
2021/12/29 03:14:15;;;;;;;0.80;0.80;;;16.90;57.40;;;;;;5051033;28;20171;-61
2021/12/29 03:16:40;;;;;;;0.80;0.80;;;16.90;57.40;;;;;;5050874;28;20175;-60
2021/12/29 03:19:06;;;;;;;0.80;0.73;;;17.00;57.50;;;;;;5050191;28;20614;-61
2021/12/29 03:21:32;;;;;;;0.75;0.70;;;16.90;57.50;;;;;;5050606;28;20661;-59
2021/12/29 03:23:58;;;;;;;0.65;0.60;;;16.90;57.40;;;;;;5050776;28;20194;-59
2021/12/29 03:26:23;;;;;;;1.13;0.90;;;16.90;57.40;;;;;;5049812;28;20186;-59
2021/12/29 03:28:49;;;;;;;1.67;0.80;;;16.90;57.50;;;;;;5051232;28;20167;-60
2021/12/29 03:31:16;;;;;;;0.60;0.60;;;16.90;57.50;;;;;;5051054;28;20171;-59
2021/12/29 03:33:42;;;;;;;1.55;0.80;;;16.90;57.40;;;;;;5049750;28;20630;-59
2021/12/29 03:36:08;;;;;;;0.70;0.70;;;16.90;57.40;;;;;;5054387;28;20179;-58
2021/12/29 03:38:35;;;;;;;0.98;0.88;;;16.90;57.40;;;;;;5054221;28;20220;-60
2021/12/29 03:41:01;;;;;;;1.42;0.98;;;16.90;57.40;;;;;;5054230;28;20210;-60
2021/12/29 03:43:27;;;;;;;0.80;0.70;;;16.90;57.40;;;;;;5054364;28;20566;-59
2021/12/29 03:45:54;;;;;;;0.80;0.80;;;16.90;57.40;;;;;;5053833;28;20211;-59
2021/12/29 03:48:21;;;;;;;1.27;1.00;;;16.90;57.50;;;;;;5054158;28;20238;-60
2021/12/29 03:50:46;;;;;;;1.05;1.00;;;16.90;57.50;;;;;;5054379;28;20186;-59
2021/12/29 03:53:13;;;;;;;0.70;0.70;;;16.80;57.40;;;;;;5053592;28;20171;-59
2021/12/29 03:55:42;;;;;;;1.40;0.80;;;16.90;57.50;;;;;;5054186;28;20193;-60
2021/12/29 03:58:09;;;;;;;1.00;0.93;;;16.90;57.50;;;;;;5054120;28;20201;-60
2021/12/29 04:00:34;;;;;;;0.82;0.82;;;16.80;57.40;;;;;;5053063;28;20211;-59
2021/12/29 04:03:00;;;;;;;0.98;0.90;;;16.80;57.40;;;;;;5054095;28;20268;-58
2021/12/29 04:05:25;;;;;;;0.90;0.90;;;16.80;57.40;;;;;;5053604;28;20559;-58
2021/12/29 04:07:53;;;;;;;0.98;0.88;;;16.80;57.40;;;;;;5053114;28;20616;-58
2021/12/29 04:10:18;;;;;;;1.17;0.90;;;16.80;57.40;;;;;;5053885;28;20175;-60
2021/12/29 04:12:44;;;;;;;1.33;0.90;;;16.80;57.40;;;;;;5053851;28;20171;-59
2021/12/29 04:15:10;;;;;;;0.70;0.70;;;16.80;57.40;;;;;;5052940;28;20262;-60
2021/12/29 04:17:37;;;;;;;1.40;0.88;;;16.80;57.40;;;;;;5053496;28;20204;-59
2021/12/29 04:22:53;;;;;;;1.75;1.00;;;16.80;57.50;;;;;;5031807;28;20548;-60
2021/12/29 04:25:23;;;;;;;1.13;0.93;;;16.80;57.40;;;;;;5053919;28;20626;-59
2021/12/29 04:27:50;;;;;;;0.82;0.82;;;16.70;57.40;;;;;;5053794;28;20190;-59
2021/12/29 04:30:15;;;;;;;0.80;0.70;;;16.80;57.40;;;;;;5053148;28;20236;-59
2021/12/29 04:32:41;;;;;;;1.08;0.90;;;16.70;57.40;;;;;;5053155;28;20606;-60
2021/12/29 04:35:06;;;;;;;1.00;0.90;;;16.70;57.40;;;;;;5052555;28;20211;-60
2021/12/29 04:37:32;;;;;;;0.80;0.80;;;16.70;57.40;;;;;;5053347;28;20190;-60
2021/12/29 04:39:57;;;;;;;1.08;1.00;;;16.70;57.40;;;;;;5053554;28;20583;-59
2021/12/29 04:42:23;;;;;;;1.35;0.90;;;16.70;57.40;;;;;;5052380;28;20314;-59
2021/12/29 04:44:48;;;;;;;0.73;0.73;;;16.70;57.40;;;;;;5053440;28;20179;-59
2021/12/29 04:47:14;;;;;;;1.85;1.10;;;16.70;57.40;;;;;;5052156;28;20182;-59
2021/12/29 04:49:41;;;;;;;1.10;1.00;;;16.70;57.40;;;;;;5051977;28;20255;-60
2021/12/29 04:52:07;;;;;;;0.77;0.77;;;16.70;57.40;;;;;;5053257;28;20228;-60
2021/12/29 04:54:33;;;;;;;1.15;0.90;;;16.70;57.40;;;;;;5053553;28;20179;-59
2021/12/29 04:56:58;;;;;;;1.08;0.98;;;16.70;57.40;;;;;;5052363;28;20202;-59
2021/12/29 04:59:25;;;;;;;0.70;0.70;;;16.70;57.50;;;;;;5052749;28;20175;-59
2021/12/29 05:01:51;;;;;;;1.05;0.90;;;16.70;57.40;;;;;;5052821;28;20261;-59
2021/12/29 05:04:30;;;;;;;1.35;1.05;;;16.70;57.40;;;;;;5052134;28;20167;-59
2021/12/29 05:09:40;;;;;;;1.38;1.00;;;16.70;57.40;;;;;;5052431;28;20189;-58
2021/12/29 05:12:06;;;;;;;1.25;1.00;;;16.60;57.40;;;;;;5052001;28;20179;-59
2021/12/29 05:14:32;;;;;;;1.58;0.88;;;16.70;57.40;;;;;;5052137;28;20228;-60
2021/12/29 05:16:57;;;;;;;1.10;1.00;;;16.60;57.40;;;;;;5052768;28;20182;-59
2021/12/29 05:19:23;;;;;;;1.70;0.93;;;16.60;57.40;;;;;;5051591;28;20503;-59
2021/12/29 05:21:48;;;;;;;1.85;1.30;;;16.60;57.40;;;;;;5052645;28;20365;-59
2021/12/29 05:24:14;;;;;;;0.88;0.80;;;16.60;57.40;;;;;;5051689;28;20334;-59
2021/12/29 05:26:40;;;;;;;1.38;0.98;;;16.60;57.40;;;;;;5052181;28;20229;-60
2021/12/29 05:29:05;;;;;;;2.00;1.00;;;16.60;57.40;;;;;;5052346;28;20237;-60
2021/12/29 05:31:31;;;;;;;0.90;0.80;;;16.60;57.40;;;;;;5051263;28;20202;-59
2021/12/29 05:33:56;;;;;;;1.38;1.00;;;16.60;57.40;;;;;;5052172;28;20167;-59
2021/12/29 05:36:22;;;;;;;1.30;0.80;;;16.60;57.40;;;;;;5051897;28;20171;-59
2021/12/29 05:38:47;;;;;;;2.03;1.02;;;16.60;57.40;;;;;;5051545;28;20175;-60
2021/12/29 05:41:13;;;;;;;1.33;1.02;;;16.60;57.40;;;;;;5051902;28;20249;-59
2021/12/29 05:43:39;;;;;;;1.27;1.17;;;16.60;57.40;;;;;;5051576;28;20179;-59
2021/12/29 05:46:04;;;;;;;1.15;1.05;;;16.60;57.40;;;;;;5051460;28;20206;-59
2021/12/29 05:48:30;;;;;;;0.95;0.95;;;16.60;57.40;;;;;;5051568;28;20227;-59
2021/12/29 05:50:55;;;;;;;1.20;1.10;;;16.60;57.40;;;;;;5052306;28;20715;-60
2021/12/29 05:53:21;;;;;;;1.58;1.10;;;16.60;57.40;;;;;;5051030;28;20220;-59
2021/12/29 05:55:46;;;;;;;1.13;0.93;;;16.60;57.40;;;;;;5051889;28;20179;-60
2021/12/29 05:58:12;;;;;;;2.00;1.50;;;16.60;57.40;;;;;;5051634;28;20171;-60
2021/12/29 06:00:39;;;;;;;1.05;0.60;;;16.60;57.40;;;;;;5050736;28;20242;-59
2021/12/29 06:03:05;;;;;;;0.75;0.75;;;16.60;57.40;;;;;;5052161;28;20275;-59
2021/12/29 06:05:30;;;;;;;1.77;0.82;;;16.60;57.40;;;;;;5051624;28;20580;-59
2021/12/29 06:07:56;;;;;;;1.13;1.02;;;16.60;57.40;;;;;;5051061;28;20473;-59
2021/12/29 06:10:21;;;;;;;1.02;0.90;;;16.50;57.30;;;;;;5051479;28;20179;-59
2021/12/29 06:12:47;;;;;;;1.00;0.90;;;16.60;57.40;;;;;;5051725;28;20170;-60
2021/12/29 06:15:12;;;;;;;0.80;0.80;;;16.50;57.30;;;;;;5051136;28;20183;-60
2021/12/29 06:17:38;;;;;;;0.65;0.65;;;16.50;57.30;;;;;;5051379;28;20248;-60
2021/12/29 06:20:05;;;;;;;1.50;0.90;;;16.50;57.30;;;;;;5051454;28;20583;-60
2021/12/29 06:22:30;;;;;;;1.10;1.00;;;16.50;57.40;;;;;;5050411;28;20681;-60
2021/12/29 06:24:56;;;;;;;0.98;0.88;;;16.50;57.30;;;;;;5051401;28;20178;-60
2021/12/29 06:27:22;;;;;;;1.02;0.80;;;16.50;57.30;;;;;;5051073;28;20537;-59
2021/12/29 06:29:47;;;;;;;0.80;0.80;;;16.50;57.40;;;;;;5050913;28;20190;-60
2021/12/29 06:32:13;;;;;;;1.70;1.00;;;16.50;57.30;;;;;;5051661;28;20542;-60
2021/12/29 06:34:38;;;;;;;1.10;0.90;;;16.50;57.30;;;;;;5050605;28;20268;-60
2021/12/29 06:37:08;;;;;;;1.83;1.00;;;16.50;57.30;;;;;;5051416;28;20190;-60
2021/12/29 06:39:35;;;;;;;1.10;1.00;;;16.50;57.40;;;;;;5051242;28;20225;-60
2021/12/29 06:42:01;;;;;;;0.90;0.70;;;16.50;57.30;;;;;;5050350;28;20214;-60
2021/12/29 06:44:26;;;;;;;1.90;0.73;;;16.50;57.30;;;;;;5051217;28;20167;-60
2021/12/29 06:46:52;;;;;;;1.55;0.90;;;16.50;57.30;;;;;;5051277;28;20185;-60
2021/12/29 06:49:17;;;;;;;1.33;1.23;;;16.50;57.30;;;;;;5050622;28;20669;-60
2021/12/29 06:51:43;;;;;;;1.00;0.90;;;16.50;57.40;;;;;;5051020;28;20186;-60
2021/12/29 06:54:08;;;;;;;0.90;0.90;;;16.50;57.30;;;;;;5051275;28;20171;-60
2021/12/29 06:56:34;;;;;;;1.30;1.02;;;16.40;57.30;;;;;;5050273;28;20225;-59
2021/12/29 06:58:59;;;;;;;1.27;0.85;;;16.50;57.30;;;;;;5051544;28;20250;-59
2021/12/29 07:01:25;;;;;;;0.70;0.70;;;16.50;57.30;;;;;;5050953;28;20710;-58
2021/12/29 07:03:50;;;;;;;0.82;0.82;;;16.40;57.30;;;;;;5050833;28;20179;-58
2021/12/29 07:06:16;;;;;;;1.02;0.90;;;16.40;57.30;;;;;;5051147;28;20179;-60
2021/12/29 07:08:41;;;;;;;1.05;0.73;;;16.40;57.30;;;;;;5050818;28;20183;-60
2021/12/29 07:11:07;;;;;;;0.80;0.80;;;16.40;57.30;;;;;;5053975;28;20174;-59
2021/12/29 07:13:32;;;;;;;0.90;0.90;;;16.40;57.30;;;;;;5054715;28;20236;-60
2021/12/29 07:15:58;;;;;;;0.80;0.80;;;16.40;57.30;;;;;;5055192;28;20172;-60
2021/12/29 07:18:24;;;;;;;0.82;0.82;;;16.40;57.30;;;;;;5053995;28;20179;-60
2021/12/29 07:20:49;;;;;;;2.08;0.95;;;16.40;57.40;;;;;;5054778;28;20203;-60
2021/12/29 07:23:15;;;;;;;0.70;0.70;;;16.40;57.30;;;;;;5054994;28;20205;-60
2021/12/29 07:25:40;;;;;;;0.95;0.82;;;16.40;57.30;;;;;;5053761;28;20610;-59
2021/12/29 07:28:06;;;;;;;0.80;0.80;;;16.40;57.40;;;;;;5055044;28;20186;-60
2021/12/29 07:30:31;;;;;;;1.17;0.77;;;16.40;57.30;;;;;;5054594;28;20190;-60
2021/12/29 07:32:57;;;;;;;0.75;0.73;;;16.40;57.30;;;;;;5054137;28;20516;-60
2021/12/29 07:35:22;;;;;;;1.02;0.70;;;16.40;57.30;;;;;;5054445;28;20263;-60
2021/12/29 07:37:49;;;;;;;0.80;0.80;;;16.40;57.40;;;;;;5053729;28;20198;-59
2021/12/29 07:40:15;;;;;;;1.20;0.88;;;16.50;57.50;;;;;;5054387;28;20228;-59
2021/12/29 07:42:41;;;;;;;0.80;0.70;;;16.60;57.40;;;;;;5054378;28;20179;-59
2021/12/29 07:45:08;;;;;;;1.67;0.77;;;16.80;57.20;;;;;;5053674;28;20178;-59
2021/12/29 07:47:35;;;;;;;0.60;0.60;;;17.00;56.90;;;;;;5054187;28;20653;-59
2021/12/29 07:50:00;;;;;;;0.80;0.80;;;17.20;56.60;;;;;;5054017;28;20269;-59
2021/12/29 07:52:26;;;;;;;0.60;0.60;;;17.50;56.30;;;;;;5053289;28;20171;-60
2021/12/29 07:54:51;;;;;;;0.68;0.68;;;17.70;55.90;;;;;;5054340;28;20175;-59
2021/12/29 07:57:17;;;;;;;0.90;0.60;;;17.90;55.50;;;;;;5054567;28;20190;-59
2021/12/29 07:59:42;;;;;;;0.70;0.63;;;18.00;55.30;;;;;;5053412;28;20253;-59
2021/12/29 08:02:11;;;;;;;0.73;0.73;;;18.10;55.10;;;;;;5054119;28;20214;-60
2021/12/29 08:04:38;;;;;;;0.77;0.60;;;18.20;54.80;;;;;;5052707;28;20221;-60
2021/12/29 08:07:04;;;;;;;0.50;0.50;;;18.30;54.70;;;;;;5052172;28;20217;-59
2021/12/29 08:09:29;;;;;;;0.77;0.65;;;18.30;54.60;;;;;;5053603;28;20176;-59
2021/12/29 08:11:55;;;;;;;1.33;0.70;;;18.30;54.50;;;;;;5054094;28;20634;-60
2021/12/29 08:14:20;;;;;;;1.10;0.55;;;18.40;54.50;;;;;;5053116;28;20270;-61
2021/12/29 08:16:46;;;;;;;1.55;0.55;;;18.50;54.40;;;;;;5053918;28;20279;-65
2021/12/29 08:19:11;;;;;;;0.55;0.55;;;18.50;54.70;;;;;;5053780;28;20263;-64
2021/12/29 08:21:37;;;;;;;1.40;0.77;;;18.50;55.00;;;;;;5052543;28;20317;-62
2021/12/29 08:24:02;;;;;;;1.50;0.82;;;18.50;55.40;;;;;;5053462;28;20732;-62
2021/12/29 08:26:31;;;;;;;1.20;0.70;;;18.50;55.60;;;;;;5053545;28;20650;-62
2021/12/29 08:28:58;;;;;;;1.88;0.95;;;18.50;55.90;;;;;;5052962;28;20175;-64
2021/12/29 08:31:24;;;;;;;2.03;1.02;;;18.50;56.00;;;;;;5053232;28;20187;-65
2021/12/29 08:33:50;;;;;;;1.40;1.15;;;18.50;56.10;;;;;;5053512;28;20258;-63
2021/12/29 08:36:15;;;;;;;1.85;1.00;;;18.50;56.20;;;;;;5052830;28;20185;-64
2021/12/29 08:38:42;;;;;;;2.95;1.00;;;18.60;56.30;;;;;;5053240;28;20602;-63
2021/12/29 08:41:09;;;;;;;2.88;0.90;;;18.60;57.00;;;;;;5052700;28;20214;-65
2021/12/29 08:43:35;;;;;;;2.22;1.02;;;18.50;56.30;;;;;;5053035;28;20213;-64
2021/12/29 08:46:00;;;;;;;1.42;1.00;;;18.60;56.40;;;;;;5053325;28;20199;-64
2021/12/29 08:48:26;;;;;;;2.17;1.20;;;18.60;56.30;;;;;;5052060;28;20233;-64
2021/12/29 08:50:51;;;;;;;1.45;0.80;;;18.70;56.10;;;;;;5053141;28;20175;-64
2021/12/29 08:53:17;;;;;;;2.58;1.13;;;18.70;56.10;;;;;;5052926;28;20186;-63
2021/12/29 08:55:46;;;;;;;1.65;0.90;;;18.60;56.20;;;;;;5051902;28;20190;-64
2021/12/29 08:58:13;;;;;;;1.58;0.90;;;18.50;56.30;;;;;;5052995;28;20172;-65
2021/12/29 09:00:39;;;;;;;2.28;0.80;;;18.40;56.60;;;;;;5052642;28;20214;-66
2021/12/29 09:03:06;;;;;;;2.67;0.95;;;18.40;56.80;;;;;;5052171;28;20171;-66
2021/12/29 09:05:32;;;;;;;1.10;0.65;;;18.30;56.80;;;;;;5052268;28;20185;-65
2021/12/29 09:07:57;;;;;;;1.42;0.75;;;18.20;56.80;;;;;;5052710;28;20171;-64
2021/12/29 09:10:23;;;;;;;2.83;1.00;;;18.20;56.90;;;;;;5051665;28;20252;-62
2021/12/29 09:12:51;;;;;;;3.22;1.00;;;18.30;57.10;;;;;;5052773;28;20313;-62
2021/12/29 09:15:17;;;;;;;4.30;0.98;;;18.30;57.20;;;;;;5052488;28;20192;-64
2021/12/29 09:17:43;;;;;;;1.90;0.80;;;18.30;58.00;;;;;;5051527;28;20202;-65
2021/12/29 09:20:15;;;;;;;5.03;1.50;;;18.40;57.20;;;;;;5052130;28;20182;-65
2021/12/29 09:22:40;;;;;;;4.72;1.00;;;18.40;57.10;;;;;;5051093;28;20190;-66
2021/12/29 09:25:06;;;;;;;0.65;0.60;;;18.40;57.20;;;;;;5051707;28;20626;-66
2021/12/29 09:27:31;;;;;;;0.90;0.70;;;18.30;57.20;;;;;;5051124;28;20257;-65
2021/12/29 09:29:57;;;;;;;1.92;1.00;;;18.20;57.30;;;;;;5051651;28;20587;-66
2021/12/29 09:32:23;;;;;;;1.98;1.00;;;18.10;57.30;;;;;;5050803;28;20179;-66
2021/12/29 09:34:50;;;;;;;2.90;1.08;;;18.10;57.60;;;;;;5052117;28;20281;-66
2021/12/29 09:37:15;;;;;;;1.27;0.70;;;18.10;57.60;;;;;;5052231;28;20187;-66
2021/12/29 09:39:41;;;;;;;0.98;0.70;;;18.10;57.60;;;;;;5051552;28;20171;-65
2021/12/29 09:42:06;;;;;;;1.85;0.70;;;18.10;57.60;;;;;;5051890;28;20568;-66
2021/12/29 09:44:32;;;;;;;1.00;0.90;;;18.20;57.50;;;;;;5050754;28;20176;-68
2021/12/29 09:46:57;;;;;;;1.95;0.82;;;18.20;57.40;;;;;;5060677;28;20216;-68
2021/12/29 09:49:23;;;;;;;6.22;1.75;;;18.10;57.40;;;;;;5058511;28;20307;-68
2021/12/29 09:51:49;;;;;;;1.63;0.90;;;18.10;57.50;;;;;;5071197;28;20228;-68
2021/12/29 09:54:15;;;;;;;2.72;1.10;;;18.00;57.60;;;;;;5059467;28;20178;-67
2021/12/29 09:56:40;;;;;;;1.48;0.85;;;18.00;57.70;;;;;;5051832;28;20179;-67
2021/12/29 09:59:06;;;;;;;2.03;1.00;;;17.90;57.80;;;;;;5051272;28;20167;-67
2021/12/29 10:01:32;;;;;;;1.13;0.80;;;17.80;57.90;;;;;;5052000;28;20246;-68
2021/12/29 10:03:57;;;;;;;1.58;1.23;;;17.80;58.00;;;;;;5071499;28;20264;-68
2021/12/29 10:06:23;;;;;;;2.03;1.05;;;17.80;58.00;;;;;;5070651;28;20651;-67
2021/12/29 10:08:48;;;;;;;1.02;0.93;;;17.80;58.00;;;;;;5071829;28;20232;-67
2021/12/29 10:11:18;;;;;;;3.65;1.25;;;17.80;58.00;;;;;;5051961;28;20183;-67
2021/12/29 10:13:45;;;;;;;4.20;1.40;;;17.80;58.00;;;;;;5050809;28;20172;-67
2021/12/29 10:16:13;;;;;;;2.53;1.20;;;17.80;58.00;;;;;;5051515;28;20194;-67
2021/12/29 10:18:41;;;;;;;3.13;1.52;;;17.80;57.90;;;;;;5053521;28;20261;-67
2021/12/29 10:21:12;;;;;;;1.67;1.13;;;17.80;57.90;;;;;;5070679;28;20645;-67
2021/12/29 10:23:56;;;;;;;1.65;1.10;;;17.80;58.00;;;;;;5071387;28;20178;-66
2021/12/29 10:26:24;;;;;;;2.97;1.30;;;17.70;57.90;;;;;;5071243;28;20177;-67
2021/12/29 10:28:51;;;;;;;1.02;0.90;;;17.70;58.00;;;;;;5070769;28;20209;-68
2021/12/29 10:31:23;;;;;;;1.33;1.00;;;17.60;58.10;;;;;;5071407;28;20643;-68
2021/12/29 10:33:55;;;;;;;1.60;1.02;;;17.60;58.20;;;;;;5070474;28;20653;-69
2021/12/29 10:36:26;;;;;;;1.75;1.20;;;17.60;58.10;;;;;;5071111;28;20170;-69
2021/12/29 10:38:56;;;;;;;1.27;1.17;;;17.70;58.10;;;;;;5071309;28;20224;-69
2021/12/29 10:41:21;;;;;;;1.42;0.90;;;17.70;58.10;;;;;;5070159;28;20206;-69
2021/12/29 10:44:03;;;;;;;3.15;1.17;;;17.80;58.00;;;;;;5071555;28;20197;-68
2021/12/29 10:46:31;;;;;;;1.10;1.00;;;17.80;58.00;;;;;;5075308;28;20235;-69
2021/12/29 10:48:57;;;;;;;1.90;1.00;;;17.80;58.00;;;;;;5074630;28;20232;-68
2021/12/29 10:51:28;;;;;;;1.17;0.90;;;17.70;57.90;;;;;;5075262;28;20174;-68
2021/12/29 10:54:24;;;;;;;1.52;0.93;;;17.70;58.00;;;;;;5063628;28;20179;-66
2021/12/29 10:57:06;;;;;;;2.15;1.30;;;17.70;58.00;;;;;;5054829;28;20190;-68
2021/12/29 10:59:34;;;;;;;1.63;0.88;;;17.60;58.20;;;;;;5055004;28;20187;-69
2021/12/29 11:02:00;;;;;;;2.00;0.93;;;17.60;58.20;;;;;;5054562;28;20560;-68
2021/12/29 11:04:25;;;;;;;1.50;1.00;;;17.70;58.20;;;;;;5054723;28;20175;-68
2021/12/29 11:06:52;;;;;;;2.35;1.10;;;17.70;58.10;;;;;;5055261;28;20179;-68
2021/12/29 11:09:26;;;;;;;1.30;0.93;;;17.80;58.10;;;;;;5054639;28;20171;-67
2021/12/29 11:11:52;;;;;;;1.10;1.00;;;17.80;58.00;;;;;;5055094;28;20227;-68
2021/12/29 11:14:21;;;;;;;1.10;1.00;;;17.80;58.00;;;;;;5054852;28;20534;-68
2021/12/29 11:16:51;;;;;;;2.13;1.20;;;17.80;58.00;;;;;;5054198;28;20193;-67
2021/12/29 11:19:18;;;;;;;2.15;0.82;;;17.80;58.00;;;;;;5055104;28;20171;-68
2021/12/29 11:21:43;;;;;;;1.20;1.10;;;17.70;58.00;;;;;;5054571;28;20598;-68
2021/12/29 11:24:23;;;;;;;1.00;0.98;;;17.70;58.00;;;;;;5054168;28;20195;-67
2021/12/29 11:26:49;;;;;;;1.55;0.90;;;17.70;58.10;;;;;;5054643;28;20170;-68
2021/12/29 11:29:17;;;;;;;1.70;1.08;;;17.70;58.10;;;;;;5054680;28;20183;-67
2021/12/29 11:31:48;;;;;;;1.20;1.00;;;17.70;58.20;;;;;;5053611;28;20243;-67
2021/12/29 11:34:24;;;;;;;1.42;1.23;;;17.80;58.10;;;;;;5054713;28;20182;-68
2021/12/29 11:37:07;;;;;;;1.05;1.00;;;17.80;58.10;;;;;;5054724;28;20179;-68
2021/12/29 11:39:35;;;;;;;1.35;1.00;;;17.80;58.00;;;;;;5054151;28;20190;-68
2021/12/29 11:42:00;;;;;;;0.85;0.85;;;17.80;58.00;;;;;;5054326;28;20261;-67
2021/12/29 11:44:26;;;;;;;1.40;0.93;;;17.70;58.00;;;;;;5053543;28;20175;-68
2021/12/29 11:46:51;;;;;;;1.50;0.90;;;17.70;58.10;;;;;;5054449;28;20601;-68
2021/12/29 11:49:18;;;;;;;1.33;0.90;;;17.70;58.10;;;;;;5054210;28;20219;-68
2021/12/29 11:52:03;;;;;;;1.20;1.10;;;17.60;58.10;;;;;;5053361;28;20186;-67
2021/12/29 11:54:49;;;;;;;2.55;0.93;;;17.60;58.30;;;;;;5068736;28;20609;-68
2021/12/29 11:57:16;;;;;;;3.72;1.10;;;17.60;58.30;;;;;;5058757;28;20170;-68
2021/12/29 11:59:42;;;;;;;1.58;1.00;;;17.60;58.20;;;;;;5072922;28;20174;-62
2021/12/29 12:02:07;;;;;;;2.40;1.40;;;17.70;58.30;;;;;;5073840;28;20218;-62
2021/12/29 12:04:33;;;;;;;1.98;1.45;;;17.70;58.30;;;;;;5073501;28;20177;-64
2021/12/29 12:07:07;;;;;;;2.05;1.10;;;17.70;58.30;;;;;;5072974;28;20210;-64
2021/12/29 12:09:47;;;;;;;2.03;1.20;;;17.70;58.20;;;;;;5073804;28;20200;-63
2021/12/29 12:12:12;;;;;;;1.15;1.05;;;17.70;58.20;;;;;;5073219;28;20182;-63
2021/12/29 12:15:07;;;;;;;2.20;1.20;;;17.70;58.20;;;;;;5073518;28;20953;-62
2021/12/29 12:17:32;;;;;;;1.92;0.95;;;17.70;58.20;;;;;;5072593;28;20257;-63
2021/12/29 12:20:09;;;;;;;1.17;1.00;;;17.60;58.20;;;;;;5073054;28;20262;-62
2021/12/29 12:22:49;;;;;;;1.58;0.95;;;17.60;58.40;;;;;;5073470;28;20298;-63
2021/12/29 12:25:27;;;;;;;1.75;0.70;;;17.60;58.30;;;;;;5073646;28;20240;-67
2021/12/29 12:28:01;;;;;;;1.38;0.80;;;17.70;58.30;;;;;;5072822;28;20181;-70
2021/12/29 12:30:28;;;;;;;1.67;0.98;;;17.70;58.40;;;;;;5073601;28;20174;-70
2021/12/29 12:32:55;;;;;;;2.58;0.98;;;17.70;58.40;;;;;;5073498;28;20185;-70
2021/12/29 12:35:32;;;;;;;2.53;1.35;;;17.70;58.40;;;;;;5072697;28;20257;-70
2021/12/29 12:37:58;;;;;;;1.83;1.00;;;17.60;58.40;;;;;;5073438;28;20185;-69
2021/12/29 12:40:28;;;;;;;2.38;0.95;;;17.60;58.50;;;;;;5072176;28;20559;-69
2021/12/29 12:43:14;;;;;;;2.03;0.98;;;17.60;58.60;;;;;;5073352;28;20678;-69
2021/12/29 12:45:41;;;;;;;2.97;1.13;;;17.60;58.60;;;;;;5073290;28;20162;-68
2021/12/29 12:48:11;;;;;;;2.47;1.13;;;17.50;58.70;;;;;;5072689;28;20178;-68
2021/12/29 12:50:38;;;;;;;1.00;0.90;;;17.60;58.70;;;;;;5072860;28;20206;-68
2021/12/29 12:53:03;;;;;;;1.40;1.10;;;17.60;58.70;;;;;;5068618;28;20179;-68
2021/12/29 12:55:32;;;;;;;1.77;1.23;;;17.60;58.60;;;;;;5052429;28;20171;-68